Poughkeepsie, New York
Current Conditions -  °F | °C
As of 8:53 AM on Wednesday 26 Nov 2014 (Local Time) from KPOU Reporting Station
Light Snow Light Snow  
Wind Chill: 32°   Ceiling: 1000
Heat Index: 36°   Visibility: 2mi
Dew Point: 31°   Wind: 5mph
Humidity: 82%   Direction: 30°NNE
Pressure: 30.16"   Gusts: NA
Location:  41.71°N, 73.93°W
Report Text: KPOU 261353Z 03004KT 2SM -SN OVC010 02/M01 A3016 RMK AO2 RAB16E19SNB19 SLP212 P0001 T00221006
Loading
Personal Weather Stations






























Interactive Weather Map New forecast layout! Learn more

10-Day Weather Forecast

Advertisements
Track Severe Weather on mobile